sensor_id;sensor_type;location;lat;lon;timestamp;P1;durP1;ratioP1;P2;durP2;ratioP2
40595;SDS011;26304;48.794;9.820;2023-11-19T00:00:41;1.20;;;1.10;;
40595;SDS011;26304;48.794;9.820;2023-11-19T00:03:03;1.25;;;1.15;;
40595;SDS011;26304;48.794;9.820;2023-11-19T00:05:28;1.10;;;1.00;;
40595;SDS011;26304;48.794;9.820;2023-11-19T00:07:50;1.30;;;1.20;;
40595;SDS011;26304;48.794;9.820;2023-11-19T00:10:13;0.95;;;0.95;;
40595;SDS011;26304;48.794;9.820;2023-11-19T00:12:40;0.90;;;0.90;;
40595;SDS011;26304;48.794;9.820;2023-11-19T00:15:05;1.27;;;1.17;;
40595;SDS011;26304;48.794;9.820;2023-11-19T00:17:32;0.93;;;0.93;;
40595;SDS011;26304;48.794;9.820;2023-11-19T00:19:54;1.02;;;1.02;;
40595;SDS011;26304;48.794;9.820;2023-11-19T00:22:18;1.30;;;1.20;;
40595;SDS011;26304;48.794;9.820;2023-11-19T00:24:42;1.25;;;1.15;;
40595;SDS011;26304;48.794;9.820;2023-11-19T00:27:05;1.08;;;1.08;;
40595;SDS011;26304;48.794;9.820;2023-11-19T00:29:28;1.00;;;1.00;;
40595;SDS011;26304;48.794;9.820;2023-11-19T00:31:51;1.35;;;1.20;;
40595;SDS011;26304;48.794;9.820;2023-11-19T00:34:13;1.45;;;1.10;;
40595;SDS011;26304;48.794;9.820;2023-11-19T00:36:36;1.02;;;0.95;;
40595;SDS011;26304;48.794;9.820;2023-11-19T00:38:59;1.25;;;1.15;;
40595;SDS011;26304;48.794;9.820;2023-11-19T00:41:22;1.35;;;1.25;;
40595;SDS011;26304;48.794;9.820;2023-11-19T00:43:44;1.00;;;1.00;;
40595;SDS011;26304;48.794;9.820;2023-11-19T00:46:07;1.00;;;0.90;;
40595;SDS011;26304;48.794;9.820;2023-11-19T00:48:31;1.15;;;1.05;;
40595;SDS011;26304;48.794;9.820;2023-11-19T00:50:54;1.00;;;0.90;;
40595;SDS011;26304;48.794;9.820;2023-11-19T00:53:16;1.15;;;0.95;;
40595;SDS011;26304;48.794;9.820;2023-11-19T00:55:40;0.93;;;0.93;;
40595;SDS011;26304;48.794;9.820;2023-11-19T00:58:02;1.00;;;1.00;;
40595;SDS011;26304;48.794;9.820;2023-11-19T01:00:25;0.88;;;0.88;;
40595;SDS011;26304;48.794;9.820;2023-11-19T01:02:48;0.80;;;0.80;;
40595;SDS011;26304;48.794;9.820;2023-11-19T01:05:11;1.00;;;1.00;;
40595;SDS011;26304;48.794;9.820;2023-11-19T01:07:35;1.15;;;1.08;;
40595;SDS011;26304;48.794;9.820;2023-11-19T01:09:58;0.80;;;0.80;;
40595;SDS011;26304;48.794;9.820;2023-11-19T01:12:21;0.95;;;0.85;;
40595;SDS011;26304;48.794;9.820;2023-11-19T01:14:44;0.90;;;0.90;;
40595;SDS011;26304;48.794;9.820;2023-11-19T01:17:06;1.08;;;1.00;;
40595;SDS011;26304;48.794;9.820;2023-11-19T01:19:30;1.58;;;0.80;;
40595;SDS011;26304;48.794;9.820;2023-11-19T01:21:52;0.93;;;0.93;;
40595;SDS011;26304;48.794;9.820;2023-11-19T01:24:14;0.90;;;0.90;;
40595;SDS011;26304;48.794;9.820;2023-11-19T01:26:37;1.00;;;0.88;;
40595;SDS011;26304;48.794;9.820;2023-11-19T01:29:00;0.93;;;0.93;;
40595;SDS011;26304;48.794;9.820;2023-11-19T01:31:23;0.85;;;0.85;;
40595;SDS011;26304;48.794;9.820;2023-11-19T01:33:45;0.63;;;0.63;;
40595;SDS011;26304;48.794;9.820;2023-11-19T01:36:08;0.80;;;0.80;;
40595;SDS011;26304;48.794;9.820;2023-11-19T01:38:34;0.90;;;0.90;;
40595;SDS011;26304;48.794;9.820;2023-11-19T01:40:56;1.13;;;0.90;;
40595;SDS011;26304;48.794;9.820;2023-11-19T01:43:31;0.85;;;0.85;;
40595;SDS011;26304;48.794;9.820;2023-11-19T01:45:56;0.80;;;0.80;;
40595;SDS011;26304;48.794;9.820;2023-11-19T01:48:18;0.80;;;0.80;;
40595;SDS011;26304;48.794;9.820;2023-11-19T01:50:41;0.70;;;0.70;;
40595;SDS011;26304;48.794;9.820;2023-11-19T01:53:03;0.80;;;0.80;;
40595;SDS011;26304;48.794;9.820;2023-11-19T01:55:25;0.70;;;0.70;;
40595;SDS011;26304;48.794;9.820;2023-11-19T01:57:50;0.63;;;0.63;;
40595;SDS011;26304;48.794;9.820;2023-11-19T02:00:15;0.93;;;0.90;;
40595;SDS011;26304;48.794;9.820;2023-11-19T02:02:39;0.85;;;0.85;;
40595;SDS011;26304;48.794;9.820;2023-11-19T02:05:02;0.73;;;0.73;;
40595;SDS011;26304;48.794;9.820;2023-11-19T02:07:25;0.80;;;0.80;;
40595;SDS011;26304;48.794;9.820;2023-11-19T02:09:47;0.70;;;0.70;;
40595;SDS011;26304;48.794;9.820;2023-11-19T02:12:10;0.80;;;0.80;;
40595;SDS011;26304;48.794;9.820;2023-11-19T02:14:33;0.80;;;0.80;;
40595;SDS011;26304;48.794;9.820;2023-11-19T02:16:56;0.73;;;0.70;;
40595;SDS011;26304;48.794;9.820;2023-11-19T02:19:20;0.60;;;0.60;;
40595;SDS011;26304;48.794;9.820;2023-11-19T02:21:42;0.65;;;0.65;;
40595;SDS011;26304;48.794;9.820;2023-11-19T02:24:06;1.08;;;0.70;;
40595;SDS011;26304;48.794;9.820;2023-11-19T02:26:30;0.80;;;0.80;;
40595;SDS011;26304;48.794;9.820;2023-11-19T02:29:03;0.60;;;0.60;;
40595;SDS011;26304;48.794;9.820;2023-11-19T02:31:27;0.60;;;0.60;;
40595;SDS011;26304;48.794;9.820;2023-11-19T02:33:50;0.63;;;0.63;;
40595;SDS011;26304;48.794;9.820;2023-11-19T02:36:12;0.60;;;0.60;;
40595;SDS011;26304;48.794;9.820;2023-11-19T02:38:35;0.70;;;0.70;;
40595;SDS011;26304;48.794;9.820;2023-11-19T02:40:57;0.65;;;0.65;;
40595;SDS011;26304;48.794;9.820;2023-11-19T02:43:20;0.63;;;0.63;;
40595;SDS011;26304;48.794;9.820;2023-11-19T02:45:44;0.60;;;0.60;;
40595;SDS011;26304;48.794;9.820;2023-11-19T02:48:07;0.55;;;0.55;;
40595;SDS011;26304;48.794;9.820;2023-11-19T02:50:30;0.60;;;0.60;;
40595;SDS011;26304;48.794;9.820;2023-11-19T02:52:53;0.60;;;0.60;;
40595;SDS011;26304;48.794;9.820;2023-11-19T02:55:17;0.70;;;0.70;;
40595;SDS011;26304;48.794;9.820;2023-11-19T02:57:40;0.55;;;0.55;;
40595;SDS011;26304;48.794;9.820;2023-11-19T03:00:07;0.77;;;0.75;;
40595;SDS011;26304;48.794;9.820;2023-11-19T03:02:34;0.55;;;0.55;;
40595;SDS011;26304;48.794;9.820;2023-11-19T03:05:05;2.25;;;0.90;;
40595;SDS011;26304;48.794;9.820;2023-11-19T03:07:28;0.68;;;0.68;;
40595;SDS011;26304;48.794;9.820;2023-11-19T03:09:50;0.90;;;0.70;;
40595;SDS011;26304;48.794;9.820;2023-11-19T03:12:13;0.60;;;0.60;;
40595;SDS011;26304;48.794;9.820;2023-11-19T03:14:35;0.65;;;0.65;;
40595;SDS011;26304;48.794;9.820;2023-11-19T03:16:58;0.50;;;0.50;;
40595;SDS011;26304;48.794;9.820;2023-11-19T03:19:22;0.60;;;0.60;;
40595;SDS011;26304;48.794;9.820;2023-11-19T03:21:44;0.40;;;0.40;;
40595;SDS011;26304;48.794;9.820;2023-11-19T03:24:07;0.60;;;0.60;;
40595;SDS011;26304;48.794;9.820;2023-11-19T03:26:29;0.50;;;0.50;;
40595;SDS011;26304;48.794;9.820;2023-11-19T03:28:51;0.70;;;0.70;;
40595;SDS011;26304;48.794;9.820;2023-11-19T03:31:14;0.60;;;0.60;;
40595;SDS011;26304;48.794;9.820;2023-11-19T03:33:36;0.60;;;0.60;;
40595;SDS011;26304;48.794;9.820;2023-11-19T03:36:00;0.60;;;0.60;;
40595;SDS011;26304;48.794;9.820;2023-11-19T03:38:23;0.50;;;0.50;;
40595;SDS011;26304;48.794;9.820;2023-11-19T03:40:45;0.52;;;0.52;;
40595;SDS011;26304;48.794;9.820;2023-11-19T03:43:07;0.60;;;0.60;;
40595;SDS011;26304;48.794;9.820;2023-11-19T03:45:30;0.50;;;0.50;;
40595;SDS011;26304;48.794;9.820;2023-11-19T03:47:53;0.50;;;0.50;;
40595;SDS011;26304;48.794;9.820;2023-11-19T03:50:15;0.50;;;0.50;;
40595;SDS011;26304;48.794;9.820;2023-11-19T03:52:40;0.75;;;0.57;;
40595;SDS011;26304;48.794;9.820;2023-11-19T03:55:02;0.47;;;0.47;;
40595;SDS011;26304;48.794;9.820;2023-11-19T03:57:26;1.17;;;0.60;;
40595;SDS011;26304;48.794;9.820;2023-11-19T03:59:49;0.40;;;0.40;;
40595;SDS011;26304;48.794;9.820;2023-11-19T04:02:12;0.50;;;0.50;;
40595;SDS011;26304;48.794;9.820;2023-11-19T04:04:34;0.50;;;0.50;;
40595;SDS011;26304;48.794;9.820;2023-11-19T04:06:56;0.80;;;0.80;;
40595;SDS011;26304;48.794;9.820;2023-11-19T04:09:21;0.50;;;0.50;;
40595;SDS011;26304;48.794;9.820;2023-11-19T04:11:44;0.50;;;0.50;;
40595;SDS011;26304;48.794;9.820;2023-11-19T04:14:07;0.60;;;0.60;;
40595;SDS011;26304;48.794;9.820;2023-11-19T04:16:30;0.40;;;0.40;;
40595;SDS011;26304;48.794;9.820;2023-11-19T04:18:53;0.40;;;0.40;;
40595;SDS011;26304;48.794;9.820;2023-11-19T04:21:15;0.68;;;0.68;;
40595;SDS011;26304;48.794;9.820;2023-11-19T04:23:37;0.47;;;0.47;;
40595;SDS011;26304;48.794;9.820;2023-11-19T04:26:03;0.50;;;0.50;;
40595;SDS011;26304;48.794;9.820;2023-11-19T04:28:26;0.60;;;0.60;;
40595;SDS011;26304;48.794;9.820;2023-11-19T04:30:48;0.50;;;0.50;;
40595;SDS011;26304;48.794;9.820;2023-11-19T04:33:10;0.70;;;0.70;;
40595;SDS011;26304;48.794;9.820;2023-11-19T04:35:33;0.50;;;0.50;;
40595;SDS011;26304;48.794;9.820;2023-11-19T04:37:55;0.55;;;0.55;;
40595;SDS011;26304;48.794;9.820;2023-11-19T04:40:18;0.60;;;0.50;;
40595;SDS011;26304;48.794;9.820;2023-11-19T04:42:44;0.45;;;0.45;;
40595;SDS011;26304;48.794;9.820;2023-11-19T04:45:07;0.73;;;0.50;;
40595;SDS011;26304;48.794;9.820;2023-11-19T04:47:31;0.60;;;0.60;;
40595;SDS011;26304;48.794;9.820;2023-11-19T04:49:53;0.68;;;0.40;;
40595;SDS011;26304;48.794;9.820;2023-11-19T04:52:16;0.50;;;0.50;;
40595;SDS011;26304;48.794;9.820;2023-11-19T04:54:40;0.43;;;0.40;;
40595;SDS011;26304;48.794;9.820;2023-11-19T04:57:04;0.50;;;0.50;;
40595;SDS011;26304;48.794;9.820;2023-11-19T04:59:28;0.47;;;0.47;;
40595;SDS011;26304;48.794;9.820;2023-11-19T05:01:50;0.40;;;0.40;;
40595;SDS011;26304;48.794;9.820;2023-11-19T05:04:12;0.50;;;0.50;;
40595;SDS011;26304;48.794;9.820;2023-11-19T05:06:35;0.63;;;0.63;;
40595;SDS011;26304;48.794;9.820;2023-11-19T05:08:59;0.50;;;0.50;;
40595;SDS011;26304;48.794;9.820;2023-11-19T05:11:25;0.40;;;0.40;;
40595;SDS011;26304;48.794;9.820;2023-11-19T05:13:49;0.38;;;0.35;;
40595;SDS011;26304;48.794;9.820;2023-11-19T05:16:13;0.50;;;0.50;;
40595;SDS011;26304;48.794;9.820;2023-11-19T05:18:36;0.30;;;0.30;;
40595;SDS011;26304;48.794;9.820;2023-11-19T05:20:58;0.40;;;0.40;;
40595;SDS011;26304;48.794;9.820;2023-11-19T05:23:20;0.40;;;0.40;;
40595;SDS011;26304;48.794;9.820;2023-11-19T05:25:43;0.30;;;0.30;;
40595;SDS011;26304;48.794;9.820;2023-11-19T05:28:06;0.40;;;0.40;;
40595;SDS011;26304;48.794;9.820;2023-11-19T05:30:28;0.30;;;0.30;;
40595;SDS011;26304;48.794;9.820;2023-11-19T05:32:52;0.60;;;0.60;;
40595;SDS011;26304;48.794;9.820;2023-11-19T05:35:15;0.40;;;0.40;;
40595;SDS011;26304;48.794;9.820;2023-11-19T05:37:37;0.52;;;0.52;;
40595;SDS011;26304;48.794;9.820;2023-11-19T05:39:59;0.45;;;0.45;;
40595;SDS011;26304;48.794;9.820;2023-11-19T05:42:24;1.48;;;0.52;;
40595;SDS011;26304;48.794;9.820;2023-11-19T05:44:48;0.50;;;0.50;;
40595;SDS011;26304;48.794;9.820;2023-11-19T05:47:10;0.52;;;0.50;;
40595;SDS011;26304;48.794;9.820;2023-11-19T05:49:34;0.40;;;0.40;;
40595;SDS011;26304;48.794;9.820;2023-11-19T05:51:56;3.03;;;1.48;;
40595;SDS011;26304;48.794;9.820;2023-11-19T05:54:19;5.20;;;2.10;;
40595;SDS011;26304;48.794;9.820;2023-11-19T05:56:42;5.90;;;1.67;;
40595;SDS011;26304;48.794;9.820;2023-11-19T05:59:09;2.28;;;1.58;;
40595;SDS011;26304;48.794;9.820;2023-11-19T06:01:36;4.57;;;1.80;;
40595;SDS011;26304;48.794;9.820;2023-11-19T06:03:59;4.57;;;1.67;;
40595;SDS011;26304;48.794;9.820;2023-11-19T06:06:23;3.53;;;1.52;;
40595;SDS011;26304;48.794;9.820;2023-11-19T06:08:45;2.85;;;1.50;;
40595;SDS011;26304;48.794;9.820;2023-11-19T06:11:09;11.02;;;3.05;;
40595;SDS011;26304;48.794;9.820;2023-11-19T06:13:35;9.25;;;3.85;;
40595;SDS011;26304;48.794;9.820;2023-11-19T06:15:58;9.30;;;3.72;;
40595;SDS011;26304;48.794;9.820;2023-11-19T06:18:20;5.90;;;3.30;;
40595;SDS011;26304;48.794;9.820;2023-11-19T06:20:44;5.07;;;2.60;;
40595;SDS011;26304;48.794;9.820;2023-11-19T06:23:07;6.75;;;3.25;;
40595;SDS011;26304;48.794;9.820;2023-11-19T06:25:30;4.07;;;2.63;;
40595;SDS011;26304;48.794;9.820;2023-11-19T06:27:52;7.03;;;3.05;;
40595;SDS011;26304;48.794;9.820;2023-11-19T06:30:15;5.57;;;2.40;;
40595;SDS011;26304;48.794;9.820;2023-11-19T06:32:38;5.30;;;2.38;;
40595;SDS011;26304;48.794;9.820;2023-11-19T06:35:00;7.53;;;2.60;;
40595;SDS011;26304;48.794;9.820;2023-11-19T06:37:25;7.97;;;2.63;;
40595;SDS011;26304;48.794;9.820;2023-11-19T06:39:49;4.78;;;2.10;;
40595;SDS011;26304;48.794;9.820;2023-11-19T06:42:12;5.03;;;2.15;;
40595;SDS011;26304;48.794;9.820;2023-11-19T06:44:34;5.22;;;2.92;;
40595;SDS011;26304;48.794;9.820;2023-11-19T06:46:56;6.35;;;2.42;;
40595;SDS011;26304;48.794;9.820;2023-11-19T06:49:19;6.78;;;2.75;;
40595;SDS011;26304;48.794;9.820;2023-11-19T06:51:41;7.85;;;3.10;;
40595;SDS011;26304;48.794;9.820;2023-11-19T06:54:05;3.63;;;2.22;;
40595;SDS011;26304;48.794;9.820;2023-11-19T06:56:29;5.63;;;2.40;;
40595;SDS011;26304;48.794;9.820;2023-11-19T06:58:51;5.20;;;2.60;;
40595;SDS011;26304;48.794;9.820;2023-11-19T07:01:14;6.15;;;2.50;;
40595;SDS011;26304;48.794;9.820;2023-11-19T07:03:36;5.15;;;2.53;;
40595;SDS011;26304;48.794;9.820;2023-11-19T07:05:59;6.53;;;2.40;;
40595;SDS011;26304;48.794;9.820;2023-11-19T07:08:21;8.68;;;2.38;;
40595;SDS011;26304;48.794;9.820;2023-11-19T07:10:44;5.15;;;2.50;;
40595;SDS011;26304;48.794;9.820;2023-11-19T07:13:09;5.43;;;2.47;;
40595;SDS011;26304;48.794;9.820;2023-11-19T07:15:32;4.85;;;2.15;;
40595;SDS011;26304;48.794;9.820;2023-11-19T07:17:54;4.90;;;2.25;;
40595;SDS011;26304;48.794;9.820;2023-11-19T07:20:18;4.20;;;2.15;;
40595;SDS011;26304;48.794;9.820;2023-11-19T07:22:42;5.95;;;2.53;;
40595;SDS011;26304;48.794;9.820;2023-11-19T07:25:06;5.28;;;2.10;;
40595;SDS011;26304;48.794;9.820;2023-11-19T07:27:29;2.85;;;1.58;;
40595;SDS011;26304;48.794;9.820;2023-11-19T07:29:53;5.00;;;2.38;;
40595;SDS011;26304;48.794;9.820;2023-11-19T07:32:15;6.13;;;2.05;;
40595;SDS011;26304;48.794;9.820;2023-11-19T07:34:38;4.43;;;1.63;;
40595;SDS011;26304;48.794;9.820;2023-11-19T07:37:01;7.07;;;2.13;;
40595;SDS011;26304;48.794;9.820;2023-11-19T07:39:25;4.07;;;1.40;;
40595;SDS011;26304;48.794;9.820;2023-11-19T07:41:47;3.00;;;1.80;;
40595;SDS011;26304;48.794;9.820;2023-11-19T07:44:10;5.63;;;2.03;;
40595;SDS011;26304;48.794;9.820;2023-11-19T07:46:34;3.20;;;1.70;;
40595;SDS011;26304;48.794;9.820;2023-11-19T07:48:56;4.80;;;1.65;;
40595;SDS011;26304;48.794;9.820;2023-11-19T07:51:18;3.00;;;1.80;;
40595;SDS011;26304;48.794;9.820;2023-11-19T07:53:41;3.90;;;1.90;;
40595;SDS011;26304;48.794;9.820;2023-11-19T07:56:04;2.35;;;1.23;;
40595;SDS011;26304;48.794;9.820;2023-11-19T07:58:27;2.10;;;1.23;;
40595;SDS011;26304;48.794;9.820;2023-11-19T08:00:49;2.15;;;1.52;;
40595;SDS011;26304;48.794;9.820;2023-11-19T08:03:14;3.83;;;1.55;;
40595;SDS011;26304;48.794;9.820;2023-11-19T08:05:36;3.20;;;1.70;;
40595;SDS011;26304;48.794;9.820;2023-11-19T08:07:59;3.50;;;1.67;;
40595;SDS011;26304;48.794;9.820;2023-11-19T08:10:21;1.48;;;1.05;;
40595;SDS011;26304;48.794;9.820;2023-11-19T08:12:43;1.50;;;1.33;;
40595;SDS011;26304;48.794;9.820;2023-11-19T08:15:06;4.25;;;1.30;;
40595;SDS011;26304;48.794;9.820;2023-11-19T08:17:29;2.63;;;1.20;;
40595;SDS011;26304;48.794;9.820;2023-11-19T08:19:52;2.05;;;0.95;;
40595;SDS011;26304;48.794;9.820;2023-11-19T08:22:14;2.90;;;0.93;;
40595;SDS011;26304;48.794;9.820;2023-11-19T08:24:37;2.60;;;1.08;;
40595;SDS011;26304;48.794;9.820;2023-11-19T08:26:59;2.13;;;0.90;;
40595;SDS011;26304;48.794;9.820;2023-11-19T08:29:22;1.23;;;0.88;;
40595;SDS011;26304;48.794;9.820;2023-11-19T08:31:44;1.58;;;0.80;;
40595;SDS011;26304;48.794;9.820;2023-11-19T08:34:07;1.63;;;0.80;;
40595;SDS011;26304;48.794;9.820;2023-11-19T08:36:31;1.63;;;0.63;;
40595;SDS011;26304;48.794;9.820;2023-11-19T08:38:53;2.47;;;0.70;;
40595;SDS011;26304;48.794;9.820;2023-11-19T08:41:16;9.82;;;1.00;;
40595;SDS011;26304;48.794;9.820;2023-11-19T08:43:38;1.15;;;0.90;;
40595;SDS011;26304;48.794;9.820;2023-11-19T08:46:01;0.98;;;0.60;;
40595;SDS011;26304;48.794;9.820;2023-11-19T08:48:23;1.15;;;0.60;;
40595;SDS011;26304;48.794;9.820;2023-11-19T08:50:46;1.23;;;0.70;;
40595;SDS011;26304;48.794;9.820;2023-11-19T08:53:10;1.17;;;0.45;;
40595;SDS011;26304;48.794;9.820;2023-11-19T08:55:33;0.80;;;0.50;;
40595;SDS011;26304;48.794;9.820;2023-11-19T08:57:55;1.02;;;0.45;;
40595;SDS011;26304;48.794;9.820;2023-11-19T09:00:18;2.42;;;0.57;;
40595;SDS011;26304;48.794;9.820;2023-11-19T09:02:41;0.50;;;0.50;;
40595;SDS011;26304;48.794;9.820;2023-11-19T09:05:05;2.30;;;0.60;;
40595;SDS011;26304;48.794;9.820;2023-11-19T09:07:28;0.90;;;0.50;;
40595;SDS011;26304;48.794;9.820;2023-11-19T09:09:52;0.52;;;0.40;;
40595;SDS011;26304;48.794;9.820;2023-11-19T09:12:14;0.50;;;0.40;;
40595;SDS011;26304;48.794;9.820;2023-11-19T09:14:36;1.40;;;0.47;;
40595;SDS011;26304;48.794;9.820;2023-11-19T09:16:59;0.68;;;0.40;;
40595;SDS011;26304;48.794;9.820;2023-11-19T09:19:22;0.50;;;0.43;;
40595;SDS011;26304;48.794;9.820;2023-11-19T09:21:44;0.73;;;0.52;;
40595;SDS011;26304;48.794;9.820;2023-11-19T09:24:06;0.60;;;0.57;;
40595;SDS011;26304;48.794;9.820;2023-11-19T09:26:30;0.73;;;0.50;;
40595;SDS011;26304;48.794;9.820;2023-11-19T09:28:53;1.17;;;0.60;;
40595;SDS011;26304;48.794;9.820;2023-11-19T09:31:15;0.70;;;0.50;;
40595;SDS011;26304;48.794;9.820;2023-11-19T09:33:38;0.65;;;0.30;;
40595;SDS011;26304;48.794;9.820;2023-11-19T09:36:01;1.35;;;0.40;;
40595;SDS011;26304;48.794;9.820;2023-11-19T09:38:23;0.45;;;0.40;;
40595;SDS011;26304;48.794;9.820;2023-11-19T09:40:46;0.40;;;0.40;;
40595;SDS011;26304;48.794;9.820;2023-11-19T09:43:10;0.40;;;0.40;;
40595;SDS011;26304;48.794;9.820;2023-11-19T09:45:49;0.60;;;0.50;;
40595;SDS011;26304;48.794;9.820;2023-11-19T09:48:12;0.52;;;0.47;;
40595;SDS011;26304;48.794;9.820;2023-11-19T09:50:34;0.38;;;0.32;;
40595;SDS011;26304;48.794;9.820;2023-11-19T09:52:57;0.43;;;0.40;;
40595;SDS011;26304;48.794;9.820;2023-11-19T09:55:20;0.40;;;0.40;;
40595;SDS011;26304;48.794;9.820;2023-11-19T09:57:42;0.60;;;0.40;;
40595;SDS011;26304;48.794;9.820;2023-11-19T10:00:08;0.75;;;0.40;;
40595;SDS011;26304;48.794;9.820;2023-11-19T10:02:33;0.50;;;0.50;;
40595;SDS011;26304;48.794;9.820;2023-11-19T10:04:57;0.47;;;0.40;;
40595;SDS011;26304;48.794;9.820;2023-11-19T10:07:21;0.50;;;0.40;;
40595;SDS011;26304;48.794;9.820;2023-11-19T10:09:43;0.60;;;0.60;;
40595;SDS011;26304;48.794;9.820;2023-11-19T10:12:07;0.45;;;0.45;;
40595;SDS011;26304;48.794;9.820;2023-11-19T10:14:29;0.32;;;0.32;;
40595;SDS011;26304;48.794;9.820;2023-11-19T10:16:55;0.50;;;0.47;;
40595;SDS011;26304;48.794;9.820;2023-11-19T10:19:19;0.75;;;0.35;;
40595;SDS011;26304;48.794;9.820;2023-11-19T10:21:42;0.52;;;0.50;;
40595;SDS011;26304;48.794;9.820;2023-11-19T10:24:05;0.52;;;0.47;;
40595;SDS011;26304;48.794;9.820;2023-11-19T10:26:27;0.50;;;0.50;;
40595;SDS011;26304;48.794;9.820;2023-11-19T10:28:50;0.60;;;0.60;;
40595;SDS011;26304;48.794;9.820;2023-11-19T10:31:11;0.68;;;0.60;;
40595;SDS011;26304;48.794;9.820;2023-11-19T10:33:36;0.40;;;0.40;;
40595;SDS011;26304;48.794;9.820;2023-11-19T10:35:58;0.60;;;0.50;;
40595;SDS011;26304;48.794;9.820;2023-11-19T10:38:21;0.40;;;0.40;;
40595;SDS011;26304;48.794;9.820;2023-11-19T10:40:43;0.40;;;0.40;;
40595;SDS011;26304;48.794;9.820;2023-11-19T10:43:06;0.50;;;0.50;;
40595;SDS011;26304;48.794;9.820;2023-11-19T10:45:29;0.60;;;0.50;;
40595;SDS011;26304;48.794;9.820;2023-11-19T10:47:51;0.30;;;0.30;;
40595;SDS011;26304;48.794;9.820;2023-11-19T10:50:15;0.40;;;0.40;;
40595;SDS011;26304;48.794;9.820;2023-11-19T10:52:37;0.75;;;0.60;;
40595;SDS011;26304;48.794;9.820;2023-11-19T10:55:00;1.17;;;0.60;;
40595;SDS011;26304;48.794;9.820;2023-11-19T10:57:25;0.60;;;0.60;;
40595;SDS011;26304;48.794;9.820;2023-11-19T10:59:55;0.40;;;0.40;;
40595;SDS011;26304;48.794;9.820;2023-11-19T11:02:23;1.13;;;0.63;;
40595;SDS011;26304;48.794;9.820;2023-11-19T11:04:49;0.82;;;0.50;;
40595;SDS011;26304;48.794;9.820;2023-11-19T11:07:14;0.47;;;0.43;;
40595;SDS011;26304;48.794;9.820;2023-11-19T11:09:39;0.45;;;0.40;;
40595;SDS011;26304;48.794;9.820;2023-11-19T11:12:03;0.43;;;0.43;;
40595;SDS011;26304;48.794;9.820;2023-11-19T11:14:28;1.08;;;0.40;;
40595;SDS011;26304;48.794;9.820;2023-11-19T11:16:51;0.80;;;0.80;;
40595;SDS011;26304;48.794;9.820;2023-11-19T11:19:15;0.57;;;0.57;;
40595;SDS011;26304;48.794;9.820;2023-11-19T11:21:40;0.43;;;0.43;;
40595;SDS011;26304;48.794;9.820;2023-11-19T11:24:14;0.50;;;0.50;;
40595;SDS011;26304;48.794;9.820;2023-11-19T11:30:00;0.95;;;0.60;;
40595;SDS011;26304;48.794;9.820;2023-11-19T11:32:33;0.68;;;0.68;;
40595;SDS011;26304;48.794;9.820;2023-11-19T11:35:08;0.50;;;0.50;;
40595;SDS011;26304;48.794;9.820;2023-11-19T11:37:44;0.60;;;0.60;;
40595;SDS011;26304;48.794;9.820;2023-11-19T11:40:11;0.50;;;0.50;;
40595;SDS011;26304;48.794;9.820;2023-11-19T11:42:36;1.13;;;0.68;;
40595;SDS011;26304;48.794;9.820;2023-11-19T11:44:59;0.50;;;0.50;;
40595;SDS011;26304;48.794;9.820;2023-11-19T11:47:24;0.60;;;0.60;;
40595;SDS011;26304;48.794;9.820;2023-11-19T11:49:46;0.50;;;0.50;;
40595;SDS011;26304;48.794;9.820;2023-11-19T11:52:09;2.20;;;0.80;;
40595;SDS011;26304;48.794;9.820;2023-11-19T11:54:35;4.05;;;1.10;;
40595;SDS011;26304;48.794;9.820;2023-11-19T11:57:02;5.13;;;1.40;;
40595;SDS011;26304;48.794;9.820;2023-11-19T11:59:25;6.80;;;1.08;;
40595;SDS011;26304;48.794;9.820;2023-11-19T12:01:57;1.17;;;1.05;;
40595;SDS011;26304;48.794;9.820;2023-11-19T12:04:20;6.88;;;1.40;;
40595;SDS011;26304;48.794;9.820;2023-11-19T12:06:42;4.28;;;1.63;;
40595;SDS011;26304;48.794;9.820;2023-11-19T12:09:25;2.97;;;1.08;;
40595;SDS011;26304;48.794;9.820;2023-11-19T12:11:47;3.67;;;1.20;;
40595;SDS011;26304;48.794;9.820;2023-11-19T12:14:11;3.67;;;1.05;;
40595;SDS011;26304;48.794;9.820;2023-11-19T12:16:34;2.05;;;1.02;;
40595;SDS011;26304;48.794;9.820;2023-11-19T12:19:03;1.55;;;0.65;;
40595;SDS011;26304;48.794;9.820;2023-11-19T12:21:29;2.13;;;1.00;;
40595;SDS011;26304;48.794;9.820;2023-11-19T12:23:52;2.63;;;0.70;;
40595;SDS011;26304;48.794;9.820;2023-11-19T12:26:32;1.45;;;0.90;;
40595;SDS011;26304;48.794;9.820;2023-11-19T12:28:58;1.23;;;0.77;;
40595;SDS011;26304;48.794;9.820;2023-11-19T12:31:23;2.30;;;0.70;;
40595;SDS011;26304;48.794;9.820;2023-11-19T12:33:45;2.28;;;0.80;;
40595;SDS011;26304;48.794;9.820;2023-11-19T12:36:09;1.15;;;0.73;;
40595;SDS011;26304;48.794;9.820;2023-11-19T12:38:31;2.33;;;0.73;;
40595;SDS011;26304;48.794;9.820;2023-11-19T12:41:03;1.02;;;0.70;;
40595;SDS011;26304;48.794;9.820;2023-11-19T12:43:26;3.08;;;0.80;;
40595;SDS011;26304;48.794;9.820;2023-11-19T12:45:48;2.28;;;0.85;;
40595;SDS011;26304;48.794;9.820;2023-11-19T12:48:12;0.60;;;0.60;;
40595;SDS011;26304;48.794;9.820;2023-11-19T12:50:50;0.73;;;0.73;;
40595;SDS011;26304;48.794;9.820;2023-11-19T12:53:13;1.65;;;0.70;;
40595;SDS011;26304;48.794;9.820;2023-11-19T12:55:36;2.28;;;0.95;;
40595;SDS011;26304;48.794;9.820;2023-11-19T12:57:58;2.00;;;0.93;;
40595;SDS011;26304;48.794;9.820;2023-11-19T13:00:21;1.77;;;1.10;;
40595;SDS011;26304;48.794;9.820;2023-11-19T13:02:45;2.90;;;1.33;;
40595;SDS011;26304;48.794;9.820;2023-11-19T13:05:21;4.25;;;1.00;;
40595;SDS011;26304;48.794;9.820;2023-11-19T13:07:48;3.55;;;1.40;;
40595;SDS011;26304;48.794;9.820;2023-11-19T13:10:10;3.47;;;1.30;;
40595;SDS011;26304;48.794;9.820;2023-11-19T13:12:33;1.75;;;1.00;;
40595;SDS011;26304;48.794;9.820;2023-11-19T13:14:55;4.63;;;1.30;;
40595;SDS011;26304;48.794;9.820;2023-11-19T13:17:17;3.20;;;1.20;;
40595;SDS011;26304;48.794;9.820;2023-11-19T13:19:40;4.28;;;1.13;;
40595;SDS011;26304;48.794;9.820;2023-11-19T13:22:03;3.30;;;1.17;;
40595;SDS011;26304;48.794;9.820;2023-11-19T13:24:26;1.25;;;1.15;;
40595;SDS011;26304;48.794;9.820;2023-11-19T13:26:48;2.08;;;1.40;;
40595;SDS011;26304;48.794;9.820;2023-11-19T13:29:10;2.78;;;0.93;;
40595;SDS011;26304;48.794;9.820;2023-11-19T13:31:33;2.03;;;0.98;;
40595;SDS011;26304;48.794;9.820;2023-11-19T13:33:56;3.00;;;1.13;;
40595;SDS011;26304;48.794;9.820;2023-11-19T13:36:19;2.20;;;1.27;;
40595;SDS011;26304;48.794;9.820;2023-11-19T13:38:42;1.45;;;1.30;;
40595;SDS011;26304;48.794;9.820;2023-11-19T13:41:06;2.25;;;1.20;;
40595;SDS011;26304;48.794;9.820;2023-11-19T13:43:30;2.10;;;1.48;;
40595;SDS011;26304;48.794;9.820;2023-11-19T13:45:53;2.25;;;1.10;;
40595;SDS011;26304;48.794;9.820;2023-11-19T13:48:15;1.90;;;1.00;;
40595;SDS011;26304;48.794;9.820;2023-11-19T13:50:38;1.30;;;0.85;;
40595;SDS011;26304;48.794;9.820;2023-11-19T13:53:00;1.48;;;1.10;;
40595;SDS011;26304;48.794;9.820;2023-11-19T13:55:24;1.02;;;0.98;;
40595;SDS011;26304;48.794;9.820;2023-11-19T13:57:47;1.33;;;1.08;;
40595;SDS011;26304;48.794;9.820;2023-11-19T14:00:10;1.92;;;1.10;;
40595;SDS011;26304;48.794;9.820;2023-11-19T14:02:34;2.40;;;1.10;;
40595;SDS011;26304;48.794;9.820;2023-11-19T14:04:57;2.53;;;1.13;;
40595;SDS011;26304;48.794;9.820;2023-11-19T14:07:19;2.78;;;1.10;;
40595;SDS011;26304;48.794;9.820;2023-11-19T14:09:42;1.60;;;0.80;;
40595;SDS011;26304;48.794;9.820;2023-11-19T14:12:06;1.60;;;1.00;;
40595;SDS011;26304;48.794;9.820;2023-11-19T14:14:30;0.93;;;0.80;;
40595;SDS011;26304;48.794;9.820;2023-11-19T14:16:52;2.22;;;1.00;;
40595;SDS011;26304;48.794;9.820;2023-11-19T14:19:15;2.10;;;0.80;;
40595;SDS011;26304;48.794;9.820;2023-11-19T14:21:37;1.42;;;0.90;;
40595;SDS011;26304;48.794;9.820;2023-11-19T14:23:59;1.40;;;1.25;;
40595;SDS011;26304;48.794;9.820;2023-11-19T14:26:22;1.20;;;0.80;;
40595;SDS011;26304;48.794;9.820;2023-11-19T14:28:46;1.33;;;0.73;;